createdAt,value
2019-03-12T00:00:56.535Z,4.90
2019-03-12T00:03:26.266Z,4.88
2019-03-12T00:05:55.994Z,4.85
2019-03-12T00:08:25.888Z,4.82
2019-03-12T00:10:55.566Z,4.79
2019-03-12T00:13:25.232Z,4.76
2019-03-12T00:15:54.904Z,4.74
2019-03-12T00:18:24.557Z,4.73
2019-03-12T00:20:54.221Z,4.73
2019-03-12T00:23:24.111Z,4.71
2019-03-12T00:25:53.777Z,4.65
2019-03-12T00:28:23.449Z,4.61
2019-03-12T00:30:53.289Z,4.58
2019-03-12T00:33:22.925Z,4.55
2019-03-12T00:35:52.825Z,4.51
2019-03-12T00:38:22.504Z,4.47
2019-03-12T00:40:52.167Z,4.45
2019-03-12T00:43:21.856Z,4.43
2019-03-12T00:45:51.510Z,4.43
2019-03-12T00:48:21.180Z,4.42
2019-03-12T00:50:50.853Z,4.40
2019-03-12T00:53:20.528Z,4.40
2019-03-12T00:55:50.272Z,4.40
2019-03-12T00:58:19.938Z,4.42
2019-03-12T01:00:49.599Z,4.42
2019-03-12T01:03:19.257Z,4.38
2019-03-12T01:05:49.297Z,4.40
2019-03-12T01:08:18.959Z,4.40
2019-03-12T01:10:48.621Z,4.44
2019-03-12T01:13:18.987Z,4.44
2019-03-12T01:15:49.690Z,4.46
2019-03-12T01:18:19.457Z,4.43
2019-03-12T01:20:49.508Z,4.40
2019-03-12T01:23:20.153Z,4.35
2019-03-12T01:25:49.824Z,4.31
2019-03-12T01:28:19.895Z,4.30
2019-03-12T01:30:49.555Z,4.31
2019-03-12T01:33:19.218Z,4.32
2019-03-12T01:35:48.900Z,4.30
2019-03-12T01:38:18.566Z,4.27
2019-03-12T01:40:48.483Z,4.24
2019-03-12T01:43:18.472Z,4.24
2019-03-12T01:45:48.200Z,4.26
2019-03-12T01:48:17.885Z,4.27
2019-03-12T01:50:47.540Z,4.26
2019-03-12T01:53:17.209Z,4.23
2019-03-12T01:55:46.885Z,4.21
2019-03-12T01:58:16.547Z,4.19
2019-03-12T02:00:46.287Z,4.17
2019-03-12T02:03:15.964Z,4.20
2019-03-12T02:05:45.632Z,4.20
2019-03-12T02:08:15.768Z,4.18
2019-03-12T02:10:45.424Z,4.16
2019-03-12T02:13:15.324Z,4.17
2019-03-12T02:15:45.305Z,4.19
2019-03-12T02:18:15.213Z,4.16
2019-03-12T02:20:44.882Z,4.11
2019-03-12T02:23:14.548Z,4.05
2019-03-12T02:25:45.181Z,3.99
2019-03-12T02:28:14.865Z,3.97
2019-03-12T02:30:44.602Z,3.96
2019-03-12T02:33:14.345Z,3.96
2019-03-12T02:35:44.244Z,3.96
2019-03-12T02:38:13.997Z,3.93
2019-03-12T02:40:43.659Z,3.94
2019-03-12T02:43:13.309Z,3.97
2019-03-12T02:45:42.965Z,3.92
2019-03-12T02:48:12.650Z,3.96
2019-03-12T02:50:42.317Z,3.94
2019-03-12T02:53:12.003Z,3.90
2019-03-12T02:55:41.668Z,3.89
2019-03-12T02:58:11.325Z,3.86
2019-03-12T03:00:41.257Z,3.84
2019-03-12T03:03:10.955Z,3.83
2019-03-12T03:05:56.166Z,3.81
2019-03-12T03:08:29.874Z,3.81
2019-03-12T03:10:59.614Z,3.76
2019-03-12T03:13:29.327Z,3.71
2019-03-12T03:15:59.005Z,3.68
2019-03-12T03:18:29.215Z,3.69
2019-03-12T03:20:59.351Z,3.68
2019-03-12T03:23:29.094Z,3.67
2019-03-12T03:25:58.713Z,3.66
2019-03-12T03:28:28.385Z,3.62
2019-03-12T03:30:58.074Z,3.57
2019-03-12T03:33:27.734Z,3.60
2019-03-12T03:35:57.399Z,3.62
2019-03-12T03:38:27.141Z,3.63
2019-03-12T03:40:56.888Z,3.63
2019-03-12T03:43:26.546Z,3.62
2019-03-12T03:45:56.229Z,3.63
2019-03-12T03:48:25.967Z,3.61
2019-03-12T03:50:56.683Z,3.59
2019-03-12T03:53:26.354Z,3.56
2019-03-12T03:55:56.034Z,3.54
2019-03-12T03:58:26.004Z,3.56
2019-03-12T04:00:55.727Z,3.58
2019-03-12T04:03:25.392Z,3.51
2019-03-12T04:05:55.156Z,3.47
2019-03-12T04:08:24.841Z,3.43
2019-03-12T04:10:54.521Z,3.40
2019-03-12T04:13:24.191Z,3.38
2019-03-12T04:15:53.876Z,3.39
2019-03-12T04:18:23.537Z,3.41
2019-03-12T04:20:53.215Z,3.41
2019-03-12T04:23:22.897Z,3.43
2019-03-12T04:25:52.562Z,3.45
2019-03-12T04:28:22.228Z,3.47
2019-03-12T04:30:51.923Z,3.46
2019-03-12T04:34:16.800Z,3.44
2019-03-12T04:36:47.698Z,3.42
2019-03-12T04:39:17.719Z,3.36
2019-03-12T04:41:47.374Z,3.38
2019-03-12T04:44:17.126Z,3.41
2019-03-12T04:46:47.896Z,3.42
2019-03-12T04:49:17.560Z,3.44
2019-03-12T04:51:47.239Z,3.43
2019-03-12T04:54:17.012Z,3.44
2019-03-12T04:56:46.703Z,3.44
2019-03-12T04:59:16.367Z,3.48
2019-03-12T05:01:46.320Z,3.52
2019-03-12T05:04:15.982Z,3.55
2019-03-12T05:06:46.634Z,3.56
2019-03-12T05:09:16.579Z,3.56
2019-03-12T05:11:46.269Z,3.56
2019-03-12T05:14:34.877Z,3.61
2019-03-12T05:17:25.054Z,3.62
2019-03-12T05:19:54.721Z,3.68
2019-03-12T05:22:25.261Z,3.73
2019-03-12T05:24:55.235Z,3.75
2019-03-12T05:27:25.178Z,3.78
2019-03-12T05:29:54.881Z,3.80
2019-03-12T05:32:24.642Z,3.86
2019-03-12T05:34:54.314Z,3.89
2019-03-12T05:37:24.312Z,3.86
2019-03-12T05:39:53.999Z,3.88
2019-03-12T05:42:23.747Z,3.95
2019-03-12T05:44:53.373Z,3.98
2019-03-12T05:47:24.138Z,3.99
2019-03-12T05:49:54.073Z,4.05
2019-03-12T05:52:23.747Z,4.06
2019-03-12T05:54:53.469Z,4.08
2019-03-12T05:57:23.153Z,4.10
2019-03-12T05:59:52.816Z,4.13
2019-03-12T06:02:22.754Z,4.17
2019-03-12T06:04:52.420Z,4.20
2019-03-12T06:07:22.114Z,4.25
2019-03-12T06:09:51.796Z,4.29
2019-03-12T06:12:21.469Z,4.27
2019-03-12T06:14:51.156Z,4.32
2019-03-12T06:17:21.061Z,4.35
2019-03-12T06:19:50.895Z,4.36
2019-03-12T06:22:20.818Z,4.41
2019-03-12T06:24:50.529Z,4.41
2019-03-12T06:27:20.449Z,4.41
2019-03-12T06:29:50.117Z,4.46
2019-03-12T06:32:41.592Z,4.49
2019-03-12T06:35:28.666Z,4.56
2019-03-12T06:38:29.745Z,4.65
2019-03-12T06:41:28.281Z,4.67
2019-03-12T06:44:07.712Z,4.72
2019-03-12T06:46:54.812Z,4.80
2019-03-12T06:49:33.357Z,4.84
2019-03-12T06:52:29.008Z,4.92
2019-03-12T06:55:24.256Z,4.94
2019-03-12T06:58:24.845Z,5.00
2019-03-12T07:01:02.223Z,5.06
2019-03-12T07:03:49.595Z,5.10
2019-03-12T07:06:31.047Z,5.17
2019-03-12T07:09:18.399Z,5.26
2019-03-12T07:11:54.664Z,5.28
2019-03-12T07:14:28.802Z,5.31
2019-03-12T07:17:29.561Z,5.40
2019-03-12T07:20:20.164Z,5.45
2019-03-12T07:23:23.885Z,5.51
2019-03-12T07:26:21.331Z,5.60
2019-03-12T07:29:12.797Z,5.68
2019-03-12T07:31:59.882Z,5.76
2019-03-12T07:34:40.752Z,5.83
2019-03-12T07:37:25.056Z,5.87
2019-03-12T07:40:31.787Z,5.90
2019-03-12T07:43:06.964Z,5.93
2019-03-12T07:45:42.447Z,5.93
2019-03-12T07:48:19.838Z,5.92
2019-03-12T07:51:03.502Z,5.92
2019-03-12T07:53:43.530Z,5.90
2019-03-12T07:56:31.525Z,5.91
2019-03-12T07:59:18.917Z,5.82
2019-03-12T08:02:19.708Z,5.81
2019-03-12T08:05:11.523Z,5.83
2019-03-12T08:08:06.053Z,5.88
2019-03-12T08:10:59.245Z,5.86
2019-03-12T08:13:57.005Z,5.88
2019-03-12T08:16:54.841Z,5.86
2019-03-12T08:19:42.361Z,5.85
2019-03-12T08:22:49.141Z,5.94
2019-03-12T08:25:27.061Z,6.05
2019-03-12T08:28:07.083Z,6.07
2019-03-12T08:30:52.214Z,6.14
2019-03-12T08:33:53.440Z,6.20
2019-03-12T08:36:33.413Z,6.24
2019-03-12T08:39:20.754Z,6.26
2019-03-12T08:42:24.612Z,6.31
2019-03-12T08:45:04.154Z,6.32
2019-03-12T08:47:51.348Z,6.33
2019-03-12T08:50:43.067Z,6.39
2019-03-12T08:53:30.269Z,6.49
2019-03-12T08:56:20.564Z,6.55
2019-03-12T08:58:58.872Z,6.69
2019-03-12T09:01:47.385Z,6.76
2019-03-12T09:04:35.152Z,6.82
2019-03-12T09:07:30.205Z,6.89
2019-03-12T09:10:17.580Z,6.99
2019-03-12T09:12:52.793Z,7.06
2019-03-12T09:15:30.322Z,7.15
2019-03-12T09:18:30.979Z,7.26
2019-03-12T09:21:25.935Z,7.26
2019-03-12T09:24:14.876Z,7.40
2019-03-12T09:26:53.526Z,7.54
2019-03-12T09:29:30.761Z,7.51
2019-03-12T09:32:25.264Z,7.60
2019-03-12T09:35:12.637Z,7.67
2019-03-12T09:37:57.535Z,7.71
2019-03-12T09:40:35.588Z,7.79
2019-03-12T09:43:35.206Z,7.81
2019-03-12T09:46:24.571Z,7.88
2019-03-12T09:49:12.449Z,7.85
2019-03-12T09:51:46.949Z,7.90
2019-03-12T09:54:34.515Z,7.96
2019-03-12T09:57:26.741Z,7.99
2019-03-12T10:00:20.476Z,8.05
2019-03-12T10:03:07.891Z,8.03
2019-03-12T10:06:02.484Z,8.10
2019-03-12T10:09:00.292Z,8.11
2019-03-12T10:11:41.982Z,8.23
2019-03-12T10:14:29.375Z,8.32
2019-03-12T10:17:14.328Z,8.32
2019-03-12T10:19:56.823Z,8.37
2019-03-12T10:22:44.734Z,8.38
2019-03-12T10:25:33.429Z,8.39
2019-03-12T10:28:17.352Z,8.44
2019-03-12T10:31:00.531Z,8.68
2019-03-12T10:33:44.243Z,8.68
2019-03-12T10:36:44.773Z,8.74
2019-03-12T10:40:08.898Z,8.77
2019-03-12T10:43:00.639Z,8.85
2019-03-12T10:45:41.579Z,8.92
2019-03-12T10:48:11.237Z,8.97
2019-03-12T10:50:41.063Z,9.06
2019-03-12T10:53:10.718Z,9.06
2019-03-12T10:55:40.453Z,9.11
2019-03-12T10:58:10.121Z,9.24
2019-03-12T11:00:40.697Z,9.31
2019-03-12T11:03:10.423Z,9.42
2019-03-12T11:05:45.862Z,9.39
2019-03-12T11:08:11.807Z,9.46
2019-03-12T11:10:41.460Z,9.49
2019-03-12T11:13:14.437Z,9.57
2019-03-12T11:15:42.729Z,9.62
2019-03-12T11:18:12.378Z,9.69
2019-03-12T11:20:42.034Z,9.76
2019-03-12T11:23:12.080Z,9.82
2019-03-12T11:25:41.818Z,9.88
2019-03-12T11:28:11.731Z,9.94
2019-03-12T11:30:41.523Z,9.93
2019-03-12T11:33:11.268Z,9.92
2019-03-12T11:35:41.021Z,9.92
2019-03-12T11:38:10.781Z,9.99
2019-03-12T11:40:40.558Z,10.08
2019-03-12T11:43:10.308Z,10.08
2019-03-12T11:45:40.020Z,10.09
2019-03-12T11:48:10.296Z,10.20
2019-03-12T11:50:40.069Z,10.20
2019-03-12T11:53:09.813Z,10.10
2019-03-12T11:55:39.497Z,10.13
2019-03-12T11:58:09.149Z,10.14
2019-03-12T12:00:43.258Z,10.14
2019-03-12T12:03:13.010Z,10.06
2019-03-12T12:05:42.694Z,10.07
2019-03-12T12:08:12.936Z,10.12
2019-03-12T12:10:44.053Z,10.12
2019-03-12T12:13:13.703Z,10.15
2019-03-12T12:15:43.432Z,10.10
2019-03-12T12:18:13.180Z,10.05
2019-03-12T12:20:42.846Z,10.14
2019-03-12T12:23:12.505Z,10.18
2019-03-12T12:25:42.190Z,10.12
2019-03-12T12:28:11.865Z,10.24
2019-03-12T12:30:41.604Z,10.28
2019-03-12T12:33:11.447Z,10.28
2019-03-12T12:35:41.112Z,10.24
2019-03-12T12:38:10.796Z,10.30
2019-03-12T12:40:40.446Z,10.37
2019-03-12T12:43:10.426Z,10.36
2019-03-12T12:45:40.182Z,10.38
2019-03-12T12:48:10.056Z,10.39
2019-03-12T12:50:39.816Z,10.48
2019-03-12T12:53:09.490Z,10.46
2019-03-12T12:55:39.388Z,10.56
2019-03-12T12:58:09.487Z,10.63
2019-03-12T13:00:39.300Z,10.70
2019-03-12T13:03:09.285Z,10.67
2019-03-12T13:05:38.941Z,10.69
2019-03-12T13:08:09.685Z,10.78
2019-03-12T13:10:39.434Z,10.87
2019-03-12T13:13:09.179Z,10.97
2019-03-12T13:15:39.087Z,11.01
2019-03-12T13:18:08.749Z,11.11
2019-03-12T13:20:38.432Z,11.19
2019-03-12T13:23:08.250Z,11.22
2019-03-12T13:25:37.981Z,11.24
2019-03-12T13:28:07.663Z,11.34
2019-03-12T13:30:37.399Z,11.47
2019-03-12T13:33:07.129Z,11.47
2019-03-12T13:35:36.820Z,11.53
2019-03-12T13:38:06.620Z,11.63
2019-03-12T13:40:36.274Z,11.75
2019-03-12T13:43:06.513Z,11.82
2019-03-12T13:45:36.428Z,11.90
2019-03-12T13:48:06.130Z,11.84
2019-03-12T13:50:36.413Z,11.80
2019-03-12T13:53:06.134Z,11.71
2019-03-12T13:55:35.809Z,11.74
2019-03-12T13:58:05.539Z,11.75
2019-03-12T14:00:35.284Z,11.69
2019-03-12T14:03:05.113Z,11.62
2019-03-12T14:05:34.769Z,11.62
2019-03-12T14:08:05.423Z,11.58
2019-03-12T14:10:35.164Z,11.54
2019-03-12T14:13:05.566Z,11.47
2019-03-12T14:15:35.501Z,11.33
2019-03-12T14:18:05.615Z,11.33
2019-03-12T14:20:46.313Z,11.27
2019-03-12T14:23:24.626Z,11.19
2019-03-12T14:25:54.525Z,11.14
2019-03-12T14:28:24.264Z,11.10
2019-03-12T14:30:54.112Z,11.08
2019-03-12T14:33:23.915Z,11.08
2019-03-12T14:35:53.650Z,11.00
2019-03-12T14:38:23.676Z,10.99
2019-03-12T14:40:53.916Z,10.98
2019-03-12T14:43:23.647Z,10.97
2019-03-12T14:45:53.470Z,10.90
2019-03-12T14:48:47.275Z,10.87
2019-03-12T14:51:32.518Z,10.85
2019-03-12T14:54:02.349Z,10.81
2019-03-12T14:56:32.307Z,10.83
2019-03-12T14:59:02.307Z,10.83
2019-03-12T15:01:32.124Z,10.78
2019-03-12T15:04:01.934Z,10.77
2019-03-12T15:06:31.671Z,10.81
2019-03-12T15:09:01.348Z,10.78
2019-03-12T15:11:32.704Z,10.84
2019-03-12T15:14:02.363Z,10.78
2019-03-12T15:16:32.172Z,10.75
2019-03-12T15:19:01.860Z,10.72
2019-03-12T15:21:31.592Z,10.71
2019-03-12T15:24:02.426Z,10.77
2019-03-12T15:26:32.077Z,10.78
2019-03-12T15:29:01.811Z,10.79
2019-03-12T15:31:31.478Z,10.81
2019-03-12T15:34:02.131Z,10.80
2019-03-12T15:36:31.778Z,10.79
2019-03-12T15:39:01.511Z,10.77
2019-03-12T15:41:32.840Z,10.80
2019-03-12T15:44:02.879Z,10.78
2019-03-12T15:46:32.545Z,10.76
2019-03-12T15:49:02.236Z,10.75
2019-03-12T15:51:31.888Z,10.75
2019-03-12T15:54:01.550Z,10.81
2019-03-12T15:56:31.226Z,10.72
2019-03-12T15:59:00.880Z,10.73
2019-03-12T16:01:30.549Z,10.63
2019-03-12T16:04:00.214Z,10.65
2019-03-12T16:06:29.864Z,10.62
2019-03-12T16:08:59.527Z,10.62
2019-03-12T16:11:31.206Z,10.60
2019-03-12T16:14:00.544Z,10.60
2019-03-12T16:16:30.301Z,10.61
2019-03-12T16:19:00.036Z,10.58
2019-03-12T16:21:29.717Z,10.56
2019-03-12T16:23:59.514Z,10.59
2019-03-12T16:26:29.187Z,10.56
2019-03-12T16:28:58.848Z,10.58
2019-03-12T16:31:28.511Z,10.55
2019-03-12T16:33:58.178Z,10.53
2019-03-12T16:36:28.100Z,10.54
2019-03-12T16:38:57.757Z,10.55
2019-03-12T16:41:27.426Z,10.58
2019-03-12T16:43:57.118Z,10.55
2019-03-12T16:46:26.796Z,10.55
2019-03-12T16:48:59.091Z,10.52
2019-03-12T16:51:29.084Z,10.51
2019-03-12T16:53:58.748Z,10.53
2019-03-12T16:56:28.406Z,10.49
2019-03-12T16:58:58.075Z,10.46
2019-03-12T17:01:28.708Z,10.49
2019-03-12T17:03:58.782Z,10.47
2019-03-12T17:06:28.517Z,10.43
2019-03-12T17:08:58.238Z,10.46
2019-03-12T17:11:27.919Z,10.44
2019-03-12T17:13:57.568Z,10.44
2019-03-12T17:16:27.230Z,10.45
2019-03-12T17:18:57.138Z,10.45
2019-03-12T17:21:26.830Z,10.44
2019-03-12T17:23:57.870Z,10.40
2019-03-12T17:26:28.492Z,10.43
2019-03-12T17:28:58.948Z,10.42
2019-03-12T17:31:28.594Z,10.37
2019-03-12T17:33:58.286Z,10.39
2019-03-12T17:36:28.607Z,10.38
2019-03-12T17:38:58.354Z,10.43
2019-03-12T17:41:28.049Z,10.39
2019-03-12T17:43:58.153Z,10.36
2019-03-12T17:46:27.840Z,10.39
2019-03-12T17:48:57.510Z,10.33
2019-03-12T17:51:27.182Z,10.45
2019-03-12T17:53:56.872Z,10.45
2019-03-12T17:56:26.532Z,10.41
2019-03-12T17:58:56.182Z,10.48
2019-03-12T18:01:30.140Z,10.45
2019-03-12T18:03:57.215Z,10.49
2019-03-12T18:06:26.882Z,10.58
2019-03-12T18:08:56.547Z,10.54
2019-03-12T18:11:26.223Z,10.51
2019-03-12T18:13:56.141Z,10.45
2019-03-12T18:16:25.790Z,10.35
2019-03-12T18:18:55.465Z,10.28
2019-03-12T18:21:25.102Z,10.12
2019-03-12T18:23:54.763Z,10.08
2019-03-12T18:26:24.430Z,10.01
2019-03-12T18:28:54.078Z,10.03
2019-03-12T18:31:23.743Z,10.00
2019-03-12T18:33:53.390Z,9.97
2019-03-12T18:36:23.521Z,9.95
2019-03-12T18:38:54.342Z,10.01
2019-03-12T18:41:24.004Z,10.06
2019-03-12T18:43:53.663Z,10.07
2019-03-12T18:46:23.399Z,10.08
2019-03-12T18:48:53.048Z,10.16
2019-03-12T18:51:22.726Z,10.20
2019-03-12T18:53:52.376Z,10.20
2019-03-12T18:56:22.036Z,10.28
2019-03-12T18:58:51.963Z,10.30
2019-03-12T19:01:21.615Z,10.39
2019-03-12T19:03:51.279Z,10.37
2019-03-12T19:06:21.024Z,10.46
2019-03-12T19:08:50.763Z,10.48
2019-03-12T19:11:20.498Z,10.52
2019-03-12T19:13:50.555Z,10.51
2019-03-12T19:16:20.215Z,10.35
2019-03-12T19:18:50.029Z,9.81
2019-03-12T19:21:19.678Z,9.81
2019-03-12T19:23:49.341Z,9.58
2019-03-12T19:26:19.071Z,9.44
2019-03-12T19:28:49.794Z,9.31
2019-03-12T19:31:41.570Z,9.20
2019-03-12T19:34:14.901Z,9.13
2019-03-12T19:36:44.580Z,8.95
2019-03-12T19:39:15.801Z,8.86
2019-03-12T19:41:47.067Z,8.82
2019-03-12T19:44:16.818Z,8.71
2019-03-12T19:46:46.728Z,8.70
2019-03-12T19:49:16.398Z,8.68
2019-03-12T19:51:46.057Z,8.61
2019-03-12T19:54:17.842Z,8.59
2019-03-12T19:56:47.490Z,8.45
2019-03-12T19:59:17.244Z,8.45
2019-03-12T20:01:49.566Z,8.38
2019-03-12T20:04:19.222Z,8.39
2019-03-12T20:06:48.896Z,8.31
2019-03-12T20:09:30.218Z,8.30
2019-03-12T20:12:34.955Z,8.27
2019-03-12T20:15:39.530Z,8.24
2019-03-12T20:19:03.663Z,8.18
2019-03-12T20:22:02.809Z,8.17
2019-03-12T20:25:02.506Z,8.14
2019-03-12T20:28:24.816Z,8.10
2019-03-12T20:31:38.036Z,8.07
2019-03-12T20:34:37.528Z,8.07
2019-03-12T20:37:42.968Z,8.07
2019-03-12T20:41:18.580Z,8.13
2019-03-12T20:44:31.319Z,8.18
2019-03-12T20:47:39.544Z,8.23
2019-03-12T20:50:32.937Z,8.27
2019-03-12T20:53:45.860Z,8.33
2019-03-12T20:56:52.687Z,8.41
2019-03-12T20:59:57.972Z,8.45
2019-03-12T21:03:13.206Z,8.47
2019-03-12T21:06:25.310Z,8.28
2019-03-12T21:09:42.113Z,7.99
2019-03-12T21:12:33.649Z,7.70
2019-03-12T21:15:39.430Z,7.51
2019-03-12T21:18:49.323Z,7.35
2019-03-12T21:22:03.620Z,7.24
2019-03-12T21:24:53.894Z,7.08
2019-03-12T21:28:15.567Z,6.94
2019-03-12T21:30:45.303Z,6.85
2019-03-12T21:33:15.827Z,6.77
2019-03-12T21:35:45.649Z,6.72
2019-03-12T21:38:15.307Z,6.68
2019-03-12T21:40:45.158Z,6.61
2019-03-12T21:43:14.961Z,6.57
2019-03-12T21:45:45.010Z,6.53
2019-03-12T21:48:14.653Z,6.44
2019-03-12T21:50:44.402Z,6.42
2019-03-12T21:53:14.317Z,6.38
2019-03-12T21:55:44.011Z,6.37
2019-03-12T21:58:13.748Z,6.31
2019-03-12T22:00:43.484Z,6.32
2019-03-12T22:03:16.282Z,6.34
2019-03-12T22:05:45.720Z,6.31
2019-03-12T22:08:15.369Z,6.26
2019-03-12T22:10:45.026Z,6.22
2019-03-12T22:13:14.682Z,6.20
2019-03-12T22:15:44.329Z,6.24
2019-03-12T22:18:14.053Z,6.23
2019-03-12T22:20:43.699Z,6.24
2019-03-12T22:23:22.645Z,6.27
2019-03-12T22:25:52.294Z,6.23
2019-03-12T22:28:21.953Z,6.23
2019-03-12T22:30:51.626Z,6.19
2019-03-12T22:33:21.295Z,6.15
2019-03-12T22:35:50.982Z,6.16
2019-03-12T22:38:20.709Z,6.18
2019-03-12T22:40:50.372Z,6.17
2019-03-12T22:43:20.105Z,6.18
2019-03-12T22:45:50.725Z,6.17
2019-03-12T22:48:20.377Z,6.16
2019-03-12T22:50:50.030Z,6.15
2019-03-12T22:53:19.681Z,6.15
2019-03-12T22:55:49.342Z,6.15
2019-03-12T22:58:18.991Z,6.12
2019-03-12T23:01:06.747Z,6.16
2019-03-12T23:03:54.047Z,6.16
2019-03-12T23:06:41.246Z,6.19
2019-03-12T23:09:28.984Z,6.18
2019-03-12T23:12:00.577Z,6.16
2019-03-12T23:14:31.841Z,6.11
2019-03-12T23:17:01.796Z,6.10
2019-03-12T23:19:31.726Z,6.06
2019-03-12T23:22:01.437Z,6.06
2019-03-12T23:24:31.270Z,6.02
2019-03-12T23:27:01.178Z,5.98
2019-03-12T23:29:30.976Z,5.96
2019-03-12T23:32:00.715Z,5.93
2019-03-12T23:34:30.423Z,5.93
2019-03-12T23:37:00.077Z,5.91
2019-03-12T23:39:29.817Z,5.91
2019-03-12T23:41:59.546Z,5.93
2019-03-12T23:44:29.522Z,5.92
2019-03-12T23:46:59.230Z,5.90
2019-03-12T23:49:29.067Z,5.91
2019-03-12T23:51:58.862Z,5.93
2019-03-12T23:54:28.658Z,5.96
2019-03-12T23:56:58.302Z,5.94
2019-03-12T23:59:28.266Z,5.96
